AAL1241 KDFW-LOWW
Flight info
| Callsign | AAL1241 |
|---|---|
| Flight time | N/A |
| Altitude | 33000 |
| Route | FORCK3 FORCK ELD Q32 CRAMM BAZOO Q66 ALEAN KW42U HURTS CRPLR MGERK Q133 LEEAH CYN SAILN Q97 BEEKN EBONY N433B ELSIR 5050N 5140N 5130N 5120N DINIM ELSOX ARKIL SIDDI DAWLY L620 SAM M140 DVR UL9 KONAN UL607 KOK MATUG AMASI BOMBI DETEV DINKU BESNI ALUTU AKIMA MASUR |
| Aircraft | B77W/H-SDE1E2E3FGHIJ2J3J4J5M1RWXY/LB1D1 |
Departure
| Time | N/A |
|---|---|
| Airport | Dallas Fort Worth International Airport (KDFW) |
Arrival
| Time | 2026-04-25 23:04 |
|---|---|
| Airport | Vienna International Airport (LOWW) |
| Time | Latitude | Longitude | Altitude | Speed | Heading |
|---|---|---|---|---|---|
| 2026-04-25 21:56 | 50.17304 | 8.05305 | 37169 ft | 498 kts | 101° |
| 2026-04-25 21:56 | 50.16227 | 8.12382 | 37169 ft | 498 kts | 101° |
| 2026-04-25 21:57 | 50.14620 | 8.22884 | 37164 ft | 498 kts | 102° |
| 2026-04-25 21:57 | 50.13008 | 8.33366 | 37160 ft | 497 kts | 102° |
| 2026-04-25 21:58 | 50.11393 | 8.43786 | 37162 ft | 498 kts | 102° |
| 2026-04-25 21:58 | 50.09747 | 8.54332 | 37164 ft | 498 kts | 102° |
| 2026-04-25 21:59 | 50.08115 | 8.64731 | 37158 ft | 498 kts | 102° |
| 2026-04-25 21:59 | 50.06325 | 8.75221 | 37155 ft | 500 kts | 108° |
| 2026-04-25 22:00 | 50.03227 | 8.84834 | 37167 ft | 502 kts | 122° |
| 2026-04-25 22:00 | 50.01177 | 8.89238 | 37160 ft | 503 kts | 128° |
| 2026-04-25 22:00 | 49.96802 | 8.97721 | 37166 ft | 503 kts | 128° |
| 2026-04-25 22:01 | 49.92426 | 9.06218 | 37161 ft | 504 kts | 128° |
| 2026-04-25 22:01 | 49.88776 | 9.13356 | 37156 ft | 504 kts | 128° |
| 2026-04-25 22:02 | 49.83725 | 9.23255 | 37172 ft | 504 kts | 128° |
| 2026-04-25 22:02 | 49.79369 | 9.31766 | 37169 ft | 505 kts | 128° |
| 2026-04-25 22:03 | 49.74997 | 9.40275 | 37172 ft | 505 kts | 128° |
| 2026-04-25 22:03 | 49.70612 | 9.48784 | 37164 ft | 506 kts | 128° |
| 2026-04-25 22:04 | 49.66209 | 9.57294 | 37158 ft | 507 kts | 128° |
| 2026-04-25 22:04 | 49.61799 | 9.65793 | 37144 ft | 508 kts | 128° |
| 2026-04-25 22:05 | 49.57379 | 9.74285 | 37140 ft | 508 kts | 128° |
| 2026-04-25 22:05 | 49.52951 | 9.82762 | 37139 ft | 508 kts | 128° |
| 2026-04-25 22:06 | 49.48517 | 9.91225 | 37137 ft | 508 kts | 128° |
| 2026-04-25 22:06 | 49.44077 | 9.99674 | 37130 ft | 508 kts | 128° |
| 2026-04-25 22:07 | 49.40353 | 10.06739 | 37125 ft | 507 kts | 128° |
| 2026-04-25 22:07 | 49.35191 | 10.16503 | 37130 ft | 507 kts | 129° |
| 2026-04-25 22:08 | 49.31502 | 10.23459 | 37131 ft | 506 kts | 129° |
| 2026-04-25 22:08 | 49.27053 | 10.31825 | 37133 ft | 506 kts | 129° |
| 2026-04-25 22:09 | 49.22519 | 10.40060 | 37134 ft | 506 kts | 134° |
| 2026-04-25 22:09 | 49.17489 | 10.47557 | 37142 ft | 505 kts | 136° |
| 2026-04-25 22:10 | 49.12411 | 10.54974 | 37138 ft | 505 kts | 136° |
| 2026-04-25 22:10 | 49.07354 | 10.62420 | 37140 ft | 505 kts | 136° |
| 2026-04-25 22:11 | 49.02623 | 10.70309 | 37129 ft | 504 kts | 123° |
| 2026-04-25 22:11 | 48.99407 | 10.79737 | 37138 ft | 501 kts | 107° |
| 2026-04-25 22:12 | 48.97231 | 10.89800 | 37150 ft | 500 kts | 106° |
| 2026-04-25 22:12 | 48.95455 | 10.98186 | 37140 ft | 501 kts | 106° |
| 2026-04-25 22:13 | 48.92897 | 11.09972 | 37138 ft | 503 kts | 107° |
| 2026-04-25 22:13 | 48.90665 | 11.20039 | 37132 ft | 503 kts | 107° |
| 2026-04-25 22:14 | 48.88414 | 11.30104 | 37131 ft | 503 kts | 107° |
| 2026-04-25 22:14 | 48.86155 | 11.40159 | 37130 ft | 503 kts | 107° |
| 2026-04-25 22:15 | 48.83890 | 11.50209 | 37131 ft | 503 kts | 107° |
| 2026-04-25 22:16 | 48.80477 | 11.65270 | 37129 ft | 503 kts | 107° |
| 2026-04-25 22:16 | 48.78190 | 11.75298 | 37131 ft | 503 kts | 107° |
| 2026-04-25 22:17 | 48.75896 | 11.85315 | 37131 ft | 503 kts | 107° |
| 2026-04-25 22:17 | 48.73595 | 11.95323 | 37127 ft | 502 kts | 107° |
| 2026-04-25 22:18 | 48.71288 | 12.05299 | 37118 ft | 502 kts | 108° |
| 2026-04-25 22:18 | 48.68971 | 12.15260 | 37127 ft | 501 kts | 108° |
| 2026-04-25 22:19 | 48.66668 | 12.25137 | 37127 ft | 501 kts | 108° |
| 2026-04-25 22:19 | 48.64347 | 12.35082 | 37116 ft | 501 kts | 108° |
| 2026-04-25 22:20 | 48.62034 | 12.45013 | 37123 ft | 501 kts | 108° |
| 2026-04-25 22:20 | 48.59692 | 12.54935 | 37115 ft | 501 kts | 108° |
| 2026-04-25 22:20 | 48.58520 | 12.59860 | 36973 ft | 496 kts | 108° |
| 2026-04-25 22:21 | 48.57351 | 12.64751 | 36546 ft | 495 kts | 108° |
| 2026-04-25 22:21 | 48.56179 | 12.69651 | 35958 ft | 499 kts | 108° |
| 2026-04-25 22:21 | 48.54992 | 12.74608 | 35298 ft | 505 kts | 108° |
| 2026-04-25 22:21 | 48.53790 | 12.79617 | 34619 ft | 510 kts | 108° |
| 2026-04-25 22:22 | 48.52576 | 12.84665 | 34050 ft | 514 kts | 108° |
| 2026-04-25 22:22 | 48.51356 | 12.89727 | 33581 ft | 514 kts | 108° |
| 2026-04-25 22:22 | 48.50132 | 12.94793 | 33208 ft | 513 kts | 108° |
| 2026-04-25 22:23 | 48.47681 | 13.04893 | 33124 ft | 514 kts | 108° |
| 2026-04-25 22:23 | 48.45216 | 13.15018 | 33101 ft | 515 kts | 108° |
| 2026-04-25 22:24 | 48.42814 | 13.25175 | 33097 ft | 514 kts | 103° |
| 2026-04-25 22:24 | 48.41704 | 13.35740 | 32747 ft | 512 kts | 90° |
| 2026-04-25 22:24 | 48.41739 | 13.41058 | 32322 ft | 503 kts | 82° |
| 2026-04-25 22:25 | 48.42059 | 13.46255 | 31936 ft | 496 kts | 81° |
| 2026-04-25 22:25 | 48.42395 | 13.51388 | 31543 ft | 490 kts | 81° |
| 2026-04-25 22:25 | 48.42726 | 13.56474 | 31166 ft | 485 kts | 81° |
| 2026-04-25 22:25 | 48.43042 | 13.61512 | 30773 ft | 481 kts | 81° |
| 2026-04-25 22:26 | 48.43342 | 13.66513 | 30397 ft | 478 kts | 82° |
| 2026-04-25 22:26 | 48.43625 | 13.71406 | 30036 ft | 474 kts | 82° |
| 2026-04-25 22:26 | 48.43902 | 13.76338 | 29653 ft | 471 kts | 82° |
| 2026-04-25 22:26 | 48.44177 | 13.81301 | 29279 ft | 468 kts | 82° |
| 2026-04-25 22:27 | 48.44440 | 13.86114 | 28919 ft | 466 kts | 82° |
| 2026-04-25 22:27 | 48.44708 | 13.91036 | 28553 ft | 465 kts | 82° |
| 2026-04-25 22:27 | 48.44966 | 13.95809 | 28190 ft | 463 kts | 82° |
| 2026-04-25 22:27 | 48.45230 | 14.00710 | 27821 ft | 462 kts | 82° |
| 2026-04-25 22:28 | 48.45485 | 14.05466 | 27463 ft | 461 kts | 82° |
| 2026-04-25 22:28 | 48.45744 | 14.10342 | 27089 ft | 461 kts | 83° |
| 2026-04-25 22:28 | 48.45997 | 14.15146 | 26755 ft | 459 kts | 83° |
| 2026-04-25 22:28 | 48.46239 | 14.19830 | 26613 ft | 435 kts | 83° |
| 2026-04-25 22:29 | 48.46459 | 14.24215 | 26385 ft | 406 kts | 83° |
| 2026-04-25 22:29 | 48.46662 | 14.28289 | 25987 ft | 386 kts | 82° |
| 2026-04-25 22:29 | 48.46864 | 14.32259 | 25364 ft | 377 kts | 82° |
| 2026-04-25 22:30 | 48.47270 | 14.40156 | 24472 ft | 376 kts | 83° |
| 2026-04-25 22:30 | 48.47468 | 14.44061 | 24170 ft | 372 kts | 83° |
| 2026-04-25 22:30 | 48.47662 | 14.47937 | 23821 ft | 369 kts | 83° |
| 2026-04-25 22:30 | 48.47791 | 14.50537 | 23530 ft | 369 kts | 83° |
| 2026-04-25 22:31 | 48.48043 | 14.55643 | 22997 ft | 368 kts | 83° |
| 2026-04-25 22:31 | 48.48231 | 14.59536 | 22629 ft | 366 kts | 83° |
| 2026-04-25 22:31 | 48.48416 | 14.63361 | 22264 ft | 365 kts | 83° |
| 2026-04-25 22:31 | 48.48595 | 14.67110 | 21902 ft | 363 kts | 83° |
| 2026-04-25 22:32 | 48.48776 | 14.70893 | 21534 ft | 361 kts | 83° |
| 2026-04-25 22:32 | 48.48954 | 14.74653 | 21184 ft | 359 kts | 83° |
| 2026-04-25 22:32 | 48.49130 | 14.78402 | 20792 ft | 358 kts | 83° |
| 2026-04-25 22:32 | 48.49305 | 14.82146 | 20427 ft | 356 kts | 83° |
| 2026-04-25 22:33 | 48.49477 | 14.85859 | 20074 ft | 355 kts | 83° |
| 2026-04-25 22:33 | 48.49647 | 14.89560 | 19716 ft | 353 kts | 83° |
| 2026-04-25 22:33 | 48.49815 | 14.93249 | 19366 ft | 351 kts | 83° |
| 2026-04-25 22:33 | 48.49981 | 14.96909 | 19016 ft | 349 kts | 83° |
| 2026-04-25 22:34 | 48.50145 | 15.00559 | 18665 ft | 348 kts | 83° |
| 2026-04-25 22:34 | 48.50307 | 15.04185 | 18313 ft | 346 kts | 83° |
| 2026-04-25 22:34 | 48.50468 | 15.07791 | 17954 ft | 344 kts | 83° |
| 2026-04-25 22:34 | 48.50625 | 15.11386 | 17613 ft | 343 kts | 83° |
| 2026-04-25 22:35 | 48.50783 | 15.14974 | 17262 ft | 341 kts | 83° |
| 2026-04-25 22:35 | 48.50936 | 15.18516 | 17079 ft | 334 kts | 83° |
| 2026-04-25 22:35 | 48.51082 | 15.21971 | 16903 ft | 328 kts | 84° |
| 2026-04-25 22:35 | 48.50874 | 15.25392 | 16432 ft | 331 kts | 102° |
| 2026-04-25 22:36 | 48.50303 | 15.28775 | 15955 ft | 335 kts | 104° |
| 2026-04-25 22:36 | 48.49705 | 15.32177 | 15527 ft | 336 kts | 104° |
| 2026-04-25 22:36 | 48.49110 | 15.35578 | 15173 ft | 335 kts | 104° |
| 2026-04-25 22:36 | 48.48529 | 15.38962 | 14834 ft | 334 kts | 104° |
| 2026-04-25 22:37 | 48.47957 | 15.42340 | 14537 ft | 331 kts | 103° |
| 2026-04-25 22:37 | 48.47394 | 15.45707 | 14081 ft | 333 kts | 103° |
| 2026-04-25 22:37 | 48.46829 | 15.49095 | 13681 ft | 334 kts | 103° |
| 2026-04-25 22:37 | 48.46259 | 15.52499 | 13276 ft | 336 kts | 103° |
| 2026-04-25 22:38 | 48.45695 | 15.55893 | 13017 ft | 333 kts | 103° |
| 2026-04-25 22:38 | 48.45133 | 15.59284 | 13024 ft | 334 kts | 103° |
| 2026-04-25 22:38 | 48.44568 | 15.62689 | 13017 ft | 335 kts | 103° |
| 2026-04-25 22:38 | 48.44003 | 15.66082 | 12851 ft | 333 kts | 103° |
| 2026-04-25 22:39 | 48.43441 | 15.69458 | 12542 ft | 331 kts | 103° |
| 2026-04-25 22:39 | 48.42880 | 15.72808 | 12219 ft | 329 kts | 103° |
| 2026-04-25 22:39 | 48.42325 | 15.76119 | 12051 ft | 321 kts | 103° |
| 2026-04-25 22:39 | 48.41781 | 15.79356 | 12004 ft | 318 kts | 103° |
| 2026-04-25 22:40 | 48.41234 | 15.82619 | 12015 ft | 325 kts | 103° |
| 2026-04-25 22:40 | 48.40675 | 15.85948 | 12013 ft | 331 kts | 103° |
| 2026-04-25 22:40 | 48.40107 | 15.89305 | 12006 ft | 330 kts | 103° |
| 2026-04-25 22:40 | 48.39541 | 15.92644 | 11984 ft | 329 kts | 104° |
| 2026-04-25 22:41 | 48.38976 | 15.95974 | 11991 ft | 327 kts | 103° |
| 2026-04-25 22:41 | 48.38415 | 15.99288 | 11996 ft | 326 kts | 103° |
| 2026-04-25 22:41 | 48.37856 | 16.02587 | 11997 ft | 325 kts | 103° |
| 2026-04-25 22:41 | 48.37295 | 16.05878 | 11997 ft | 325 kts | 104° |
| 2026-04-25 22:42 | 48.36735 | 16.09166 | 11982 ft | 324 kts | 104° |
| 2026-04-25 22:42 | 48.36173 | 16.12452 | 11977 ft | 324 kts | 104° |
| 2026-04-25 22:42 | 48.35611 | 16.15726 | 11736 ft | 323 kts | 104° |
| 2026-04-25 22:42 | 48.35051 | 16.18990 | 11402 ft | 322 kts | 104° |
| 2026-04-25 22:43 | 48.34489 | 16.22257 | 11027 ft | 323 kts | 104° |
| 2026-04-25 22:43 | 48.33937 | 16.25465 | 10723 ft | 321 kts | 104° |
| 2026-04-25 22:43 | 48.33380 | 16.28696 | 10405 ft | 319 kts | 103° |
| 2026-04-25 22:43 | 48.32823 | 16.31925 | 10039 ft | 318 kts | 104° |
| 2026-04-25 22:44 | 48.32259 | 16.35178 | 9673 ft | 317 kts | 104° |
| 2026-04-25 22:44 | 48.31704 | 16.38375 | 9382 ft | 315 kts | 103° |
| 2026-04-25 22:44 | 48.31164 | 16.41502 | 9080 ft | 312 kts | 103° |
| 2026-04-25 22:44 | 48.30606 | 16.44699 | 8730 ft | 312 kts | 103° |
| 2026-04-25 22:45 | 48.30069 | 16.47772 | 8588 ft | 295 kts | 104° |
| 2026-04-25 22:45 | 48.29269 | 16.50456 | 8377 ft | 277 kts | 130° |
| 2026-04-25 22:45 | 48.27904 | 16.52380 | 8395 ft | 263 kts | 146° |
| 2026-04-25 22:45 | 48.26410 | 16.54045 | 8419 ft | 270 kts | 146° |
| 2026-04-25 22:46 | 48.24910 | 16.55715 | 8173 ft | 274 kts | 146° |
| 2026-04-25 22:46 | 48.23381 | 16.57425 | 7857 ft | 275 kts | 146° |
| 2026-04-25 22:46 | 48.21857 | 16.59138 | 7593 ft | 272 kts | 146° |
| 2026-04-25 22:46 | 48.20348 | 16.60837 | 7299 ft | 270 kts | 146° |
| 2026-04-25 22:47 | 48.18861 | 16.62533 | 6972 ft | 267 kts | 141° |
| 2026-04-25 22:47 | 48.17734 | 16.64733 | 6485 ft | 268 kts | 115° |
| 2026-04-25 22:47 | 48.16940 | 16.67281 | 6130 ft | 270 kts | 115° |
| 2026-04-25 22:47 | 48.16129 | 16.69807 | 5835 ft | 268 kts | 115° |
| 2026-04-25 22:48 | 48.15307 | 16.72323 | 5527 ft | 268 kts | 116° |
| 2026-04-25 22:48 | 48.14494 | 16.74813 | 5289 ft | 265 kts | 116° |
| 2026-04-25 22:48 | 48.13683 | 16.77278 | 5008 ft | 263 kts | 116° |
| 2026-04-25 22:48 | 48.12871 | 16.79720 | 4735 ft | 261 kts | 116° |
| 2026-04-25 22:49 | 48.12063 | 16.82151 | 4476 ft | 260 kts | 116° |
| 2026-04-25 22:49 | 48.11264 | 16.84563 | 4213 ft | 258 kts | 116° |
| 2026-04-25 22:49 | 48.10473 | 16.86944 | 4049 ft | 252 kts | 116° |
| 2026-04-25 22:49 | 48.09702 | 16.89266 | 3993 ft | 249 kts | 116° |
| 2026-04-25 22:50 | 48.08921 | 16.91615 | 4008 ft | 255 kts | 116° |
| 2026-04-25 22:50 | 48.08128 | 16.93988 | 3960 ft | 255 kts | 116° |
| 2026-04-25 22:50 | 48.07337 | 16.96362 | 3800 ft | 255 kts | 117° |
| 2026-04-25 22:50 | 48.06542 | 16.98736 | 3671 ft | 254 kts | 117° |
| 2026-04-25 22:51 | 48.05753 | 17.01095 | 3562 ft | 253 kts | 117° |
| 2026-04-25 22:51 | 48.04972 | 17.03436 | 3425 ft | 249 kts | 117° |
| 2026-04-25 22:51 | 48.04194 | 17.05757 | 3094 ft | 252 kts | 117° |
| 2026-04-25 22:51 | 48.03414 | 17.08093 | 2983 ft | 249 kts | 117° |
| 2026-04-25 22:52 | 48.02642 | 17.10396 | 2975 ft | 248 kts | 117° |
| 2026-04-25 22:52 | 48.01866 | 17.12703 | 2976 ft | 249 kts | 117° |
| 2026-04-25 22:52 | 48.01352 | 17.14229 | 2982 ft | 248 kts | 118° |
| 2026-04-25 22:52 | 48.00326 | 17.16254 | 2971 ft | 245 kts | 148° |
| 2026-04-25 22:53 | 47.98763 | 17.17116 | 2987 ft | 240 kts | 182° |
| 2026-04-25 22:53 | 47.97146 | 17.16722 | 2992 ft | 236 kts | 205° |
| 2026-04-25 22:53 | 47.95651 | 17.15729 | 2978 ft | 232 kts | 210° |
| 2026-04-25 22:53 | 47.94329 | 17.14536 | 2949 ft | 210 kts | 230° |
| 2026-04-25 22:54 | 47.93714 | 17.12781 | 2948 ft | 182 kts | 269° |
| 2026-04-25 22:54 | 47.93939 | 17.10938 | 3033 ft | 183 kts | 287° |
| 2026-04-25 22:54 | 47.94318 | 17.09150 | 2976 ft | 178 kts | 289° |
| 2026-04-25 22:54 | 47.94748 | 17.07448 | 2973 ft | 174 kts | 292° |
| 2026-04-25 22:55 | 47.95221 | 17.05791 | 2976 ft | 175 kts | 294° |
| 2026-04-25 22:55 | 47.95726 | 17.04133 | 2986 ft | 177 kts | 295° |
| 2026-04-25 22:55 | 47.96247 | 17.02485 | 2992 ft | 172 kts | 295° |
| 2026-04-25 22:55 | 47.96740 | 17.00944 | 3008 ft | 157 kts | 295° |
| 2026-04-25 22:56 | 47.97207 | 16.99508 | 2982 ft | 150 kts | 296° |
| 2026-04-25 22:56 | 47.97666 | 16.98101 | 2994 ft | 152 kts | 296° |
| 2026-04-25 22:56 | 47.98137 | 16.96666 | 2995 ft | 155 kts | 296° |
| 2026-04-25 22:56 | 47.98610 | 16.95212 | 3003 ft | 157 kts | 296° |
| 2026-04-25 22:57 | 47.99091 | 16.93741 | 2994 ft | 157 kts | 295° |
| 2026-04-25 22:57 | 47.99561 | 16.92305 | 2978 ft | 151 kts | 296° |
| 2026-04-25 22:57 | 48.00025 | 16.90894 | 2984 ft | 151 kts | 296° |
| 2026-04-25 22:57 | 48.00488 | 16.89477 | 2992 ft | 152 kts | 296° |
| 2026-04-25 22:58 | 48.00954 | 16.88047 | 2995 ft | 154 kts | 296° |
| 2026-04-25 22:58 | 48.01425 | 16.86605 | 2997 ft | 155 kts | 296° |
| 2026-04-25 22:58 | 48.01899 | 16.85153 | 2998 ft | 156 kts | 296° |
| 2026-04-25 22:58 | 48.02377 | 16.83692 | 2993 ft | 157 kts | 296° |
| 2026-04-25 22:59 | 48.02847 | 16.82254 | 2977 ft | 151 kts | 296° |
| 2026-04-25 22:59 | 48.03304 | 16.80855 | 2988 ft | 150 kts | 296° |
| 2026-04-25 22:59 | 48.03767 | 16.79440 | 3003 ft | 153 kts | 296° |
| 2026-04-25 22:59 | 48.04236 | 16.78005 | 3007 ft | 155 kts | 296° |
| 2026-04-25 23:00 | 48.04709 | 16.76551 | 2998 ft | 156 kts | 296° |
| 2026-04-25 23:00 | 48.05176 | 16.75117 | 2983 ft | 151 kts | 296° |
| 2026-04-25 23:00 | 48.05629 | 16.73732 | 2936 ft | 147 kts | 296° |
| 2026-04-25 23:00 | 48.06074 | 16.72373 | 2750 ft | 144 kts | 295° |
| 2026-04-25 23:01 | 48.06513 | 16.71024 | 2566 ft | 145 kts | 295° |
| 2026-04-25 23:01 | 48.06957 | 16.69665 | 2369 ft | 145 kts | 295° |
| 2026-04-25 23:01 | 48.07403 | 16.68307 | 2194 ft | 145 kts | 297° |
| 2026-04-25 23:01 | 48.07847 | 16.66938 | 1984 ft | 148 kts | 294° |
| 2026-04-25 23:02 | 48.08292 | 16.65547 | 1817 ft | 151 kts | 295° |
| 2026-04-25 23:02 | 48.08751 | 16.64142 | 1616 ft | 149 kts | 295° |
| 2026-04-25 23:02 | 48.09205 | 16.62760 | 1400 ft | 147 kts | 295° |
| 2026-04-25 23:02 | 48.09650 | 16.61392 | 1195 ft | 145 kts | 295° |
| 2026-04-25 23:03 | 48.10092 | 16.60022 | 1022 ft | 147 kts | 295° |
| 2026-04-25 23:03 | 48.10544 | 16.58647 | 805 ft | 146 kts | 295° |
| 2026-04-25 23:03 | 48.10984 | 16.57307 | 635 ft | 143 kts | 295° |
| 2026-04-25 23:03 | 48.11373 | 16.56081 | 629 ft | 114 kts | 297° |
| 2026-04-25 23:04 | 48.11681 | 16.55192 | 629 ft | 79 kts | 296° |
| 2026-04-25 23:04 | 48.11835 | 16.54750 | 625 ft | 22 kts | 307° |
| 2026-04-25 23:04 | 48.11951 | 16.54591 | 614 ft | 17 kts | 329° |
| 2026-04-25 23:04 | 48.12008 | 16.54551 | 625 ft | 6 kts | 344° |
| 2026-04-25 23:05 | 48.12100 | 16.54554 | 614 ft | 18 kts | 21° |
| 2026-04-25 23:05 | 48.12118 | 16.54583 | 626 ft | 11 kts | 57° |
| 2026-04-25 23:05 | 48.12129 | 16.54652 | 614 ft | 6 kts | 94° |
| 2026-04-25 23:05 | 48.12117 | 16.54720 | 620 ft | 8 kts | 111° |
| 2026-04-25 23:06 | 48.12115 | 16.54780 | 614 ft | 4 kts | 54° |
| 2026-04-25 23:06 | 48.12141 | 16.54810 | 627 ft | 5 kts | 29° |
| 2026-04-25 23:06 | 48.12165 | 16.54828 | 626 ft | 2 kts | 25° |
| 2026-04-25 23:06 | 48.12174 | 16.54835 | 614 ft | 1 kts | 25° |
| 2026-04-25 23:07 | 48.12180 | 16.54839 | 614 ft | 0 kts | 26° |